Time;durP1;ratioP1;P1;durP2;ratioP2;P2;SDS_P1;SDS_P2;PMS_P1;PMS_P2;Temp;Humidity;BMP_temperature;BMP_pressure;BME280_temperature;BME280_humidity;BME280_pressure;Samples;Min_cycle;Max_cycle;Signal;HPM_P1;HPM_P2
2022/07/05 00:02:03;;;;;;;2.17;1.90;;;;;;;13.70;82.84;102069.88;5023716;28;21523;-78
2022/07/05 00:04:29;;;;;;;2.90;1.90;;;;;;;13.71;83.35;102063.63;5023213;28;20152;-78
2022/07/05 00:09:38;;;;;;;3.72;1.95;;;;;;;13.70;85.10;102067.22;5024542;28;20033;-78
2022/07/05 00:12:04;;;;;;;2.58;1.90;;;;;;;13.71;84.86;102065.41;5023926;28;20112;-78
2022/07/05 00:14:30;;;;;;;4.32;2.00;;;;;;;13.71;84.59;102068.94;5022246;28;20743;-79
2022/07/05 00:16:56;;;;;;;3.50;1.90;;;;;;;13.72;84.93;102064.47;5024374;28;20040;-78
2022/07/05 00:19:22;;;;;;;1.77;1.63;;;;;;;13.73;84.70;102066.19;5023454;28;20234;-78
2022/07/05 00:21:47;;;;;;;3.22;2.08;;;;;;;13.75;84.59;102068.81;5024928;28;20475;-78
2022/07/05 00:24:13;;;;;;;2.65;1.67;;;;;;;13.75;84.63;102066.16;5024041;28;20036;-77
2022/07/05 00:26:39;;;;;;;2.45;1.83;;;;;;;13.75;85.29;102071.47;5017599;28;20436;-78
2022/07/05 00:29:04;;;;;;;2.30;1.70;;;;;;;13.75;84.70;102067.03;5024543;28;20140;-78
2022/07/05 00:31:30;;;;;;;3.35;1.88;;;;;;;13.77;84.82;102066.97;5022204;28;20029;-78
2022/07/05 00:33:55;;;;;;;2.33;1.77;;;;;;;13.75;84.53;102063.47;5026484;28;20079;-77
2022/07/05 00:36:21;;;;;;;3.15;1.95;;;;;;;13.74;85.07;102062.63;5027873;28;20026;-77
2022/07/05 00:38:46;;;;;;;2.63;2.00;;;;;;;13.73;85.40;102062.69;5026521;28;20729;-77
2022/07/05 00:41:11;;;;;;;2.83;1.95;;;;;;;13.70;85.83;102056.56;5026342;28;20791;-77
2022/07/05 00:43:37;;;;;;;2.78;2.17;;;;;;;13.69;85.72;102062.78;5026077;28;20529;-77
2022/07/05 00:46:02;;;;;;;2.30;2.00;;;;;;;13.69;85.55;102067.25;5010222;28;20080;-77
2022/07/05 00:48:28;;;;;;;3.35;1.95;;;;;;;13.67;85.75;102064.66;5024493;28;20038;-77
2022/07/05 00:50:53;;;;;;;2.17;1.83;;;;;;;13.66;86.37;102062.03;5026350;28;20095;-77
2022/07/05 00:53:19;;;;;;;3.33;1.98;;;;;;;13.64;86.32;102067.44;5009090;28;20033;-77
2022/07/05 00:55:45;;;;;;;3.33;2.00;;;;;;;13.63;86.74;102065.72;5037527;28;20042;-77
2022/07/05 00:58:11;;;;;;;2.95;2.00;;;;;;;13.62;86.67;102077.25;5005040;28;20312;-77
2022/07/05 01:00:37;;;;;;;2.22;1.90;;;;;;;13.61;86.84;102075.53;5025321;28;20033;-77
2022/07/05 01:03:03;;;;;;;4.97;1.88;;;;;;;13.60;86.93;102065.81;5026341;28;20041;-77
2022/07/05 01:05:29;;;;;;;2.97;2.13;;;;;;;13.61;86.61;102077.34;5025435;28;20028;-77
2022/07/05 01:07:56;;;;;;;1.95;1.77;;;;;;;13.59;86.49;102077.41;5025630;28;20472;-77
2022/07/05 01:10:22;;;;;;;2.85;1.95;;;;;;;13.58;86.23;102068.53;5005643;28;20044;-77
2022/07/05 01:12:48;;;;;;;4.45;2.05;;;;;;;13.57;86.14;102072.13;5025341;28;20549;-78
2022/07/05 01:15:13;;;;;;;2.13;1.92;;;;;;;13.57;86.47;102068.63;5026078;28;20033;-77
2022/07/05 01:17:39;;;;;;;1.77;1.67;;;;;;;13.57;86.50;102073.94;5004600;28;20262;-77
2022/07/05 01:20:06;;;;;;;3.22;1.90;;;;;;;13.56;86.13;102070.41;5026038;28;20096;-77
2022/07/05 01:22:53;;;;;;;4.47;2.10;;;;;;;13.55;86.54;102070.44;5027526;28;20032;-77
2022/07/05 01:25:23;;;;;;;2.35;2.13;;;;;;;13.54;86.11;102066.06;5028070;28;20033;-77
2022/07/05 01:27:50;;;;;;;3.45;2.30;;;;;;;13.51;85.75;102069.69;5019957;28;20774;-77
2022/07/05 01:30:16;;;;;;;2.08;1.88;;;;;;;13.48;85.60;102064.50;5027655;28;20406;-77
2022/07/05 01:32:41;;;;;;;2.15;1.98;;;;;;;13.47;85.79;102070.75;5021332;28;20040;-78
2022/07/05 01:35:08;;;;;;;2.22;1.80;;;;;;;13.44;85.86;102069.06;5026078;28;20061;-77
2022/07/05 01:37:33;;;;;;;2.60;2.40;;;;;;;13.42;85.97;102067.38;5004677;28;20040;-77
2022/07/05 01:40:05;;;;;;;2.30;1.70;;;;;;;13.39;85.86;102073.66;5024946;28;20049;-77
2022/07/05 01:42:30;;;;;;;2.65;1.80;;;;;;;13.37;86.05;102067.56;5027273;28;20041;-77
2022/07/05 01:44:56;;;;;;;2.00;1.75;;;;;;;13.35;86.29;102061.41;5023896;28;20045;-77
2022/07/05 01:47:22;;;;;;;2.13;1.90;;;;;;;13.33;86.17;102062.41;5015301;28;20029;-77
2022/07/05 01:49:51;;;;;;;2.00;1.80;;;;;;;13.28;86.01;102052.81;5024476;28;20037;-77
2022/07/05 01:52:17;;;;;;;2.15;1.95;;;;;;;13.26;86.04;102059.97;5008761;28;20128;-77
2022/07/05 01:54:43;;;;;;;3.40;1.77;;;;;;;13.23;86.32;102057.41;5020548;28;20589;-77
2022/07/05 01:57:09;;;;;;;2.75;1.90;;;;;;;13.20;86.21;102065.53;5020480;28;20020;-78
2022/07/05 01:59:36;;;;;;;2.35;2.00;;;;;;;13.17;86.51;102068.28;5008390;28;20557;-77
2022/07/05 02:02:02;;;;;;;2.72;1.95;;;;;;;13.13;86.56;102059.56;5024562;28;20486;-77
2022/07/05 02:04:28;;;;;;;2.47;1.80;;;;;;;13.11;86.98;102057.88;5022911;28;20364;-77
2022/07/05 02:06:54;;;;;;;2.47;1.90;;;;;;;13.08;86.70;102065.97;5002410;28;20032;-77
2022/07/05 02:09:19;;;;;;;1.80;1.70;;;;;;;13.03;87.24;102055.50;5024822;28;20680;-77
2022/07/05 02:11:45;;;;;;;3.15;2.33;;;;;;;13.00;87.00;102066.25;5010842;28;20574;-78
2022/07/05 02:14:11;;;;;;;3.72;2.20;;;;;;;12.97;87.62;102071.69;5007853;28;20132;-77
2022/07/05 02:16:37;;;;;;;4.57;2.13;;;;;;;12.95;88.18;102068.19;5024285;28;20080;-77
2022/07/05 02:19:03;;;;;;;2.40;2.20;;;;;;;12.94;88.98;102064.69;5020281;28;20120;-77
2022/07/05 02:21:28;;;;;;;3.03;2.05;;;;;;;12.92;88.89;102065.66;5020152;28;20127;-77
2022/07/05 02:23:54;;;;;;;5.95;2.40;;;;;;;12.89;88.59;102066.63;5024476;28;20123;-77
2022/07/05 02:26:19;;;;;;;2.22;2.03;;;;;;;12.85;89.07;102062.38;5024712;28;20029;-77
2022/07/05 02:28:45;;;;;;;3.05;2.10;;;;;;;12.82;89.35;102066.00;5019175;28;20033;-77
2022/07/05 02:31:11;;;;;;;2.70;2.13;;;;;;;12.79;89.60;102067.91;5025960;28;20518;-77
2022/07/05 02:33:36;;;;;;;3.35;2.05;;;;;;;12.74;89.78;102060.94;5024185;28;20147;-77
2022/07/05 02:36:06;;;;;;;2.85;1.77;;;;;;;12.71;90.01;102065.50;5026328;28;20759;-77
2022/07/05 02:38:32;;;;;;;3.42;2.40;;;;;;;12.68;90.09;102061.16;5024273;28;20061;-78
2022/07/05 02:40:57;;;;;;;3.42;2.42;;;;;;;12.66;90.24;102055.03;5025792;28;20121;-77
2022/07/05 02:43:23;;;;;;;2.28;2.08;;;;;;;12.64;90.27;102059.50;5026066;28;20369;-77
2022/07/05 02:45:48;;;;;;;3.90;2.28;;;;;;;12.63;90.93;102058.66;5019189;28;20041;-77
2022/07/05 02:48:14;;;;;;;2.80;2.20;;;;;;;12.63;91.56;102063.97;5019404;28;20032;-77
2022/07/05 02:50:39;;;;;;;2.78;2.47;;;;;;;12.64;91.70;102059.50;5019118;28;20458;-77
2022/07/05 02:53:05;;;;;;;2.75;2.25;;;;;;;12.67;92.07;102063.84;5007573;28;20561;-77
2022/07/05 02:55:30;;;;;;;2.47;2.22;;;;;;;12.69;92.05;102062.03;5022189;28;20476;-77
2022/07/05 02:57:57;;;;;;;2.75;2.22;;;;;;;12.71;91.95;102069.03;5025180;28;20035;-77
2022/07/05 03:00:23;;;;;;;2.72;2.17;;;;;;;12.73;91.57;102064.53;5024787;28;20064;-77
2022/07/05 03:02:49;;;;;;;4.80;2.20;;;;;;;12.76;92.12;102066.22;5018071;28;20729;-77
2022/07/05 03:05:14;;;;;;;2.38;1.88;;;;;;;12.77;91.95;102068.78;5024469;28;20034;-77
2022/07/05 03:07:40;;;;;;;2.13;1.92;;;;;;;12.77;91.45;102062.63;4989651;28;20100;-77
2022/07/05 03:10:06;;;;;;;2.40;2.03;;;;;;;12.77;92.01;102066.13;5025381;28;20037;-77
2022/07/05 03:12:31;;;;;;;2.70;2.30;;;;;;;12.77;91.36;102068.78;5019056;28;20057;-77
2022/07/05 03:14:57;;;;;;;2.60;2.38;;;;;;;12.78;91.80;102072.31;5023917;28;20500;-77
2022/07/05 03:17:22;;;;;;;2.15;1.92;;;;;;;12.78;91.78;102067.00;5020019;28;20134;-77
2022/07/05 03:19:48;;;;;;;1.83;1.73;;;;;;;12.77;91.54;102071.44;5025236;28;20492;-77
2022/07/05 03:22:14;;;;;;;1.92;1.77;;;;;;;12.77;91.19;102075.91;5024889;28;20036;-77
2022/07/05 03:24:39;;;;;;;2.53;1.70;;;;;;;12.77;91.39;102065.28;5023042;28;20064;-77
2022/07/05 03:27:05;;;;;;;1.85;1.70;;;;;;;12.81;91.04;102079.31;5024070;28;20676;-77
2022/07/05 03:29:33;;;;;;;1.85;1.70;;;;;;;12.81;91.23;102074.00;5024935;28;20604;-77
2022/07/05 03:31:59;;;;;;;2.42;1.90;;;;;;;12.81;91.30;102077.53;5022582;28;20047;-77
2022/07/05 03:34:24;;;;;;;2.30;1.73;;;;;;;12.82;91.46;102078.41;5023946;28;20033;-77
2022/07/05 03:36:50;;;;;;;1.70;1.60;;;;;;;12.82;90.89;102073.97;5006269;28;20135;-77
2022/07/05 03:39:15;;;;;;;1.75;1.60;;;;;;;12.82;90.92;102086.38;5006484;28;20037;-77
2022/07/05 03:41:41;;;;;;;2.05;1.85;;;;;;;12.81;90.89;102080.19;5025044;28;20037;-77
2022/07/05 03:44:06;;;;;;;5.40;1.90;;;;;;;12.80;90.84;102085.56;5022694;28;20386;-77
2022/07/05 03:46:32;;;;;;;3.05;1.95;;;;;;;12.79;90.94;102084.69;5024170;28;20640;-77
2022/07/05 03:48:57;;;;;;;2.53;1.83;;;;;;;12.77;90.76;102082.06;5023865;28;20211;-77
2022/07/05 03:51:23;;;;;;;2.20;1.85;;;;;;;12.76;90.91;102079.50;5024431;28;20037;-77
2022/07/05 03:53:51;;;;;;;2.28;1.70;;;;;;;12.74;90.99;102081.31;5023280;28;20033;-77
2022/07/05 03:56:19;;;;;;;2.20;1.85;;;;;;;12.72;90.85;102077.84;5018899;28;20033;-76
2022/07/05 03:58:48;;;;;;;2.78;2.15;;;;;;;12.71;90.97;102081.44;5022770;28;20379;-77
2022/07/05 04:01:14;;;;;;;5.35;2.13;;;;;;;12.69;91.34;102084.13;5001080;28;20041;-76
2022/07/05 04:03:40;;;;;;;2.22;1.70;;;;;;;12.70;91.23;102080.56;5024781;28;20041;-77
2022/07/05 04:06:06;;;;;;;2.78;1.63;;;;;;;12.71;91.18;102086.75;5021955;28;21210;-77
2022/07/05 04:08:31;;;;;;;2.13;1.60;;;;;;;12.71;90.99;102082.31;5024274;28;20511;-77
2022/07/05 04:10:57;;;;;;;1.98;1.80;;;;;;;12.73;91.01;102090.22;5006051;28;20608;-77
2022/07/05 04:13:24;;;;;;;1.75;1.65;;;;;;;12.76;91.58;102085.66;5023184;28;20045;-77
2022/07/05 04:15:50;;;;;;;1.83;1.60;;;;;;;12.81;91.67;102080.19;5022901;28;20045;-77
2022/07/05 04:18:16;;;;;;;2.25;1.60;;;;;;;12.85;91.03;102081.81;5023676;28;20102;-77
2022/07/05 04:20:41;;;;;;;2.60;1.58;;;;;;;12.90;91.30;102090.50;5024307;28;20038;-76
2022/07/05 04:23:07;;;;;;;2.13;1.60;;;;;;;12.95;91.19;102090.34;5000785;28;20044;-76
2022/07/05 04:25:32;;;;;;;2.03;1.67;;;;;;;12.99;91.42;102096.41;5018574;28;20029;-77
2022/07/05 04:27:58;;;;;;;1.80;1.60;;;;;;;13.04;91.35;102097.13;5024380;28;20045;-76
2022/07/05 04:30:26;;;;;;;2.38;1.50;;;;;;;13.07;90.86;102099.66;5018307;28;20052;-76
2022/07/05 04:32:52;;;;;;;2.45;1.70;;;;;;;13.10;90.92;102099.56;5022530;28;20651;-77
2022/07/05 04:35:18;;;;;;;1.73;1.40;;;;;;;13.13;90.77;102104.75;5024129;28;20479;-77
2022/07/05 04:37:44;;;;;;;1.95;1.60;;;;;;;13.16;90.78;102096.69;5024536;28;20472;-77
2022/07/05 04:40:12;;;;;;;4.28;1.50;;;;;;;13.18;90.71;102097.47;5000889;28;20041;-77
2022/07/05 04:42:37;;;;;;;3.13;1.60;;;;;;;13.22;91.01;102103.56;5017881;28;20029;-77
2022/07/05 04:45:04;;;;;;;1.77;1.60;;;;;;;13.26;90.91;102099.00;5023027;28;20379;-77
2022/07/05 04:47:30;;;;;;;1.58;1.40;;;;;;;13.33;91.18;102104.97;5017830;28;20641;-77
2022/07/05 04:49:57;;;;;;;5.80;1.50;;;;;;;13.38;91.27;102103.84;5006146;28;20029;-77
2022/07/05 04:52:23;;;;;;;1.77;1.20;;;;;;;13.44;91.36;102098.31;5017857;28;20665;-77
2022/07/05 04:54:48;;;;;;;2.03;1.58;;;;;;;13.52;90.81;102102.50;5000286;28;20029;-77
2022/07/05 04:57:17;;;;;;;1.50;1.00;;;;;;;13.59;91.20;102106.66;5033410;28;20496;-76
2022/07/05 04:59:45;;;;;;;2.15;1.40;;;;;;;13.67;91.43;102109.91;5018044;28;20041;-77
2022/07/05 05:02:11;;;;;;;2.08;1.20;;;;;;;13.75;91.21;102106.06;5023207;28;20029;-76
2022/07/05 05:04:36;;;;;;;1.83;1.40;;;;;;;13.83;90.98;102120.81;5022782;28;20080;-77
2022/07/05 05:07:02;;;;;;;1.33;1.20;;;;;;;13.92;91.29;102108.06;5006592;28;20041;-77
2022/07/05 05:09:28;;;;;;;0.93;0.93;;;;;;;14.00;90.83;102108.63;5000119;28;20057;-77
2022/07/05 05:11:53;;;;;;;4.20;1.20;;;;;;;14.09;90.99;102115.38;5023212;28;20069;-77
2022/07/05 05:14:19;;;;;;;2.33;1.30;;;;;;;14.18;90.21;102117.69;5021842;28;20041;-76
2022/07/05 05:16:45;;;;;;;2.83;1.13;;;;;;;14.28;90.34;102117.31;5023812;28;20033;-77
2022/07/05 05:19:10;;;;;;;1.98;1.40;;;;;;;14.39;90.30;102113.25;5024601;28;20124;-76
2022/07/05 05:21:36;;;;;;;1.48;1.10;;;;;;;14.51;90.28;102116.34;5027006;28;20035;-77
2022/07/05 05:24:01;;;;;;;2.05;0.95;;;;;;;14.60;90.23;102115.97;5025822;28;20023;-77
2022/07/05 05:26:27;;;;;;;1.67;0.93;;;;;;;14.73;89.82;102113.66;5004459;28;20143;-77
2022/07/05 05:28:53;;;;;;;1.05;0.95;;;;;;;14.86;89.32;102118.50;5009575;28;20039;-77
2022/07/05 05:31:21;;;;;;;0.80;0.80;;;;;;;15.00;89.13;102113.41;5027067;28;20389;-77
2022/07/05 05:33:46;;;;;;;3.10;1.55;;;;;;;15.16;89.31;102115.41;5026720;28;20135;-79
2022/07/05 05:36:12;;;;;;;1.58;0.88;;;;;;;15.28;89.10;102117.53;5027484;28;20024;-79
2022/07/05 05:38:37;;;;;;;1.42;1.00;;;;;;;15.42;88.91;102124.03;5026352;28;20041;-77
2022/07/05 05:41:03;;;;;;;1.52;0.90;;;;;;;15.53;88.36;102116.38;5026730;28;20040;-76
2022/07/05 05:43:29;;;;;;;2.20;0.80;;;;;;;15.64;88.41;102125.69;5026667;28;20060;-77
2022/07/05 05:45:54;;;;;;;1.58;0.80;;;;;;;15.77;88.22;102124.19;5025569;28;20055;-76
2022/07/05 05:48:20;;;;;;;0.82;0.70;;;;;;;15.92;88.05;102125.31;5025604;28;20688;-78
2022/07/05 05:50:46;;;;;;;0.85;0.70;;;;;;;16.05;87.60;102128.25;5025890;28;20052;-77
2022/07/05 05:53:12;;;;;;;0.70;0.70;;;;;;;16.22;87.17;102134.56;5026952;28;20049;-77
2022/07/05 05:55:38;;;;;;;2.72;0.80;;;;;;;16.37;87.54;102127.59;5007783;28;20588;-77
2022/07/05 05:58:20;;;;;;;2.03;0.80;;;;;;;16.53;87.05;102127.69;5020694;28;20084;-76
2022/07/05 06:00:48;;;;;;;2.03;0.90;;;;;;;16.68;86.08;102137.59;5002883;28;20037;-76
2022/07/05 06:03:14;;;;;;;1.75;0.70;;;;;;;16.87;85.95;102134.00;5003808;28;20040;-76
2022/07/05 06:05:40;;;;;;;0.80;0.80;;;;;;;17.07;85.37;102137.47;5026064;28;20522;-76
2022/07/05 06:08:06;;;;;;;3.33;0.90;;;;;;;17.26;84.70;102133.84;5025805;28;20037;-77
2022/07/05 06:10:33;;;;;;;1.15;0.57;;;;;;;17.46;84.20;102144.31;5026711;28;20025;-77
2022/07/05 06:13:04;;;;;;;1.05;0.52;;;;;;;17.64;83.40;102139.78;5025603;28;20073;-76
2022/07/05 06:15:30;;;;;;;1.42;0.80;;;;;;;17.83;83.04;102146.78;5026105;28;20048;-77
2022/07/05 06:18:02;;;;;;;3.53;1.08;;;;;;;17.97;81.89;102146.00;5025952;28;20029;-77
2022/07/05 06:20:32;;;;;;;2.22;0.60;;;;;;;18.10;81.29;102148.03;5025589;28;20037;-79
2022/07/05 06:22:58;;;;;;;4.85;0.77;;;;;;;18.22;80.60;102144.66;5007967;28;20034;-76
2022/07/05 06:25:27;;;;;;;0.60;0.60;;;;;;;18.35;80.50;102136.75;5026925;28;20119;-77
2022/07/05 06:27:55;;;;;;;2.08;1.13;;;;;;;18.53;80.10;102152.72;5025701;28;20037;-77
2022/07/05 06:30:25;;;;;;;0.70;0.52;;;;;;;18.64;78.31;102152.09;5020237;28;20067;-76
2022/07/05 06:32:51;;;;;;;1.80;0.55;;;;;;;18.70;78.00;102144.53;5019366;28;20123;-77
2022/07/05 06:35:18;;;;;;;1.00;0.60;;;;;;;18.77;77.92;102153.09;5024424;28;20033;-75
2022/07/05 06:37:49;;;;;;;0.80;0.45;;;;;;;18.92;77.04;102150.44;5024401;28;20082;-75
2022/07/05 06:40:29;;;;;;;1.13;0.45;;;;;;;19.04;76.44;102149.72;5025784;28;20567;-76
2022/07/05 06:42:57;;;;;;;0.80;0.40;;;;;;;19.13;75.42;102151.00;5025953;28;20041;-78
2022/07/05 06:45:24;;;;;;;0.40;0.40;;;;;;;19.16;74.85;102149.94;5025325;28;20029;-78
2022/07/05 06:48:04;;;;;;;3.28;0.60;;;;;;;19.16;71.37;102141.91;5003227;28;20052;-77
2022/07/05 06:50:35;;;;;;;0.40;0.40;;;;;;;19.27;71.91;102144.75;5024113;28;20045;-80
2022/07/05 06:53:02;;;;;;;1.98;0.70;;;;;;;19.34;72.27;102139.88;5024160;28;20024;-77
2022/07/05 06:55:28;;;;;;;2.38;0.60;;;;;;;19.47;72.20;102156.06;5024562;28;20674;-79
2022/07/05 06:57:58;;;;;;;0.63;0.52;;;;;;;19.60;70.56;102156.19;5024671;28;20040;-76
2022/07/05 07:00:24;;;;;;;1.30;0.60;;;;;;;19.74;71.18;102152.59;5035977;28;20376;-76
2022/07/05 07:02:53;;;;;;;0.77;0.70;;;;;;;19.77;69.43;102147.06;5023900;28;21402;-75
2022/07/05 07:05:18;;;;;;;2.15;0.57;;;;;;;19.72;69.29;102155.38;5023318;28;20045;-76
2022/07/05 07:10:29;;;;;;;2.15;0.80;;;;;;;19.85;68.42;102154.59;5023674;28;20143;-78
2022/07/05 07:12:56;;;;;;;1.77;0.60;;;;;;;19.98;68.63;102160.09;5024112;28;20053;-77
2022/07/05 07:15:21;;;;;;;1.05;0.60;;;;;;;20.06;66.94;102157.75;5026237;28;20760;-79
2022/07/05 07:17:47;;;;;;;1.05;0.55;;;;;;;20.00;67.50;102161.69;5024128;28;20037;-77
2022/07/05 07:20:13;;;;;;;1.50;0.60;;;;;;;19.98;67.13;102162.78;5025547;28;20037;-77
2022/07/05 07:22:38;;;;;;;2.55;0.85;;;;;;;19.96;67.34;102154.81;5024846;28;20033;-78
2022/07/05 07:25:08;;;;;;;1.05;0.50;;;;;;;20.00;67.31;102161.69;5025284;28;20426;-77
2022/07/05 07:27:53;;;;;;;1.00;0.50;;;;;;;20.06;64.57;102168.50;5025313;28;20040;-75
2022/07/05 07:30:21;;;;;;;1.25;0.57;;;;;;;20.16;66.91;102168.78;5002632;28;20037;-77
2022/07/05 07:32:47;;;;;;;2.00;0.50;;;;;;;20.25;66.41;102170.00;5023252;28;20728;-75
2022/07/05 07:35:13;;;;;;;0.50;0.40;;;;;;;20.33;65.20;102170.34;5022053;28;20611;-77
2022/07/05 07:37:39;;;;;;;1.20;0.50;;;;;;;20.35;65.44;102165.72;5025515;28;20051;-81
2022/07/05 07:40:06;;;;;;;1.30;0.60;;;;;;;20.38;64.68;102173.59;5022644;28;20032;-82
2022/07/05 07:42:32;;;;;;;1.42;0.40;;;;;;;20.36;65.14;102170.13;5024002;28;20045;-78
2022/07/05 07:44:58;;;;;;;1.10;0.52;;;;;;;20.44;64.79;102169.63;5023900;28;20040;-79
2022/07/05 07:47:32;;;;;;;0.60;0.60;;;;;;;20.45;64.01;102172.22;5024622;28;20068;-77
2022/07/05 07:49:57;;;;;;;0.77;0.50;;;;;;;20.32;63.82;102168.63;5024498;28;20033;-77
2022/07/05 07:52:23;;;;;;;3.40;0.60;;;;;;;20.27;64.13;102170.75;5023505;28;20068;-77
2022/07/05 07:54:48;;;;;;;4.20;0.82;;;;;;;20.13;64.43;102177.91;5024522;28;20056;-77
2022/07/05 07:57:14;;;;;;;0.82;0.60;;;;;;;19.86;63.51;102186.75;5024608;28;20102;-78
2022/07/05 07:59:40;;;;;;;0.65;0.60;;;;;;;19.63;64.67;102194.47;5025015;28;20040;-80
2022/07/05 08:02:06;;;;;;;1.42;0.70;;;;;;;19.55;65.01;102180.63;5024633;28;20028;-78
2022/07/05 08:04:31;;;;;;;0.50;0.50;;;;;;;19.69;65.32;102185.13;5024700;28;20021;-74
2022/07/05 08:06:57;;;;;;;1.00;0.60;;;;;;;19.83;65.36;102178.03;5024547;28;20032;-76
2022/07/05 08:09:22;;;;;;;0.93;0.50;;;;;;;20.02;64.20;102183.09;5022957;28;20390;-76
2022/07/05 08:11:48;;;;;;;0.50;0.50;;;;;;;20.15;63.57;102186.72;5024228;28;20056;-80
2022/07/05 08:14:16;;;;;;;1.80;0.88;;;;;;;20.06;62.10;102182.78;5022634;28;20412;-76
2022/07/05 08:16:42;;;;;;;1.08;0.60;;;;;;;19.97;62.46;102201.34;5006470;28;20036;-79
2022/07/05 08:21:51;;;;;;;0.32;0.32;;;;;;;19.56;62.49;102189.56;5023971;28;20037;-77
2022/07/05 08:24:17;;;;;;;0.82;0.50;;;;;;;19.46;63.07;102187.44;5022528;28;20042;-78
2022/07/05 08:26:43;;;;;;;0.85;0.70;;;;;;;19.54;63.10;102192.31;5021872;28;21411;-80
2022/07/05 08:29:10;;;;;;;1.17;0.50;;;;;;;19.78;63.31;102191.75;5024335;28;20167;-78
2022/07/05 08:31:38;;;;;;;0.95;0.60;;;;;;;19.99;63.86;102184.16;5021404;28;20472;-76
2022/07/05 08:34:04;;;;;;;0.77;0.52;;;;;;;20.05;63.88;102188.28;5024027;28;20492;-76
2022/07/05 08:36:30;;;;;;;0.43;0.40;;;;;;;20.19;64.46;102193.63;5022146;28;20291;-76
2022/07/05 08:38:56;;;;;;;3.05;0.60;;;;;;;20.38;63.84;102189.75;5021757;28;20130;-77
2022/07/05 08:41:23;;;;;;;2.97;0.88;;;;;;;20.31;63.04;102193.75;5024207;28;20037;-77
2022/07/05 08:43:51;;;;;;;1.45;0.70;;;;;;;20.07;63.68;102180.97;5017095;28;20039;-74
2022/07/05 08:46:17;;;;;;;2.20;0.60;;;;;;;20.07;63.58;102183.66;5018092;28;20040;-77
2022/07/05 08:48:44;;;;;;;1.85;0.60;;;;;;;20.22;63.68;102190.72;5023917;28;20029;-82
2022/07/05 08:51:16;;;;;;;0.95;0.60;;;;;;;20.39;61.99;102190.59;5017962;28;20030;-76
2022/07/05 08:53:43;;;;;;;2.17;0.60;;;;;;;20.59;62.96;102191.97;5022770;28;20135;-77
2022/07/05 08:56:10;;;;;;;0.52;0.47;;;;;;;20.77;63.07;102196.06;5027494;28;20445;-77
2022/07/05 08:58:36;;;;;;;1.75;0.70;;;;;;;20.82;62.15;102193.09;5028372;28;20086;-77
2022/07/05 09:01:02;;;;;;;0.70;0.57;;;;;;;20.95;61.72;102187.75;5026608;28;20476;-76
2022/07/05 09:03:39;;;;;;;2.55;0.68;;;;;;;20.97;59.83;102196.59;5026383;28;20033;-78
2022/07/05 09:06:08;;;;;;;0.50;0.50;;;;;;;21.15;61.24;102197.13;5038208;28;20150;-78
2022/07/05 09:08:39;;;;;;;1.23;0.60;;;;;;;21.30;61.57;102207.84;5027305;28;20032;-75
2022/07/05 09:11:06;;;;;;;2.20;0.68;;;;;;;21.26;57.81;102206.31;5026755;28;20065;-77
2022/07/05 09:13:34;;;;;;;0.52;0.50;;;;;;;21.17;60.24;102208.69;5026869;28;20183;-77
2022/07/05 09:16:00;;;;;;;1.20;0.40;;;;;;;21.15;58.09;102207.06;5026763;28;20030;-77
2022/07/05 09:18:39;;;;;;;2.20;0.70;;;;;;;21.08;58.04;102209.28;5020427;28;20038;-78
2022/07/05 09:21:17;;;;;;;0.75;0.63;;;;;;;20.93;56.85;102211.22;5026849;28;20032;-77
2022/07/05 09:23:43;;;;;;;1.75;0.50;;;;;;;20.75;59.35;102214.16;5027391;28;20053;-77
2022/07/05 09:26:12;;;;;;;2.17;0.65;;;;;;;20.75;57.59;102222.22;5026099;28;20039;-78
2022/07/05 09:28:53;;;;;;;0.43;0.43;;;;;;;20.63;56.29;102209.59;5026342;28;20045;-79
2022/07/05 09:31:30;;;;;;;0.63;0.45;;;;;;;20.40;56.30;102225.44;5004384;28;21404;-79
2022/07/05 09:34:16;;;;;;;2.60;0.50;;;;;;;20.47;55.61;102226.78;5027144;28;20029;-79
2022/07/05 09:37:03;;;;;;;2.13;0.70;;;;;;;20.49;56.78;102229.38;5025473;28;20029;-80
2022/07/05 09:39:35;;;;;;;0.85;0.57;;;;;;;20.49;57.17;102227.53;5025751;28;20578;-78
2022/07/05 09:42:20;;;;;;;2.45;0.60;;;;;;;20.25;57.12;102227.31;5026549;28;20080;-79
2022/07/05 09:44:50;;;;;;;1.15;0.50;;;;;;;20.01;57.98;102233.31;5028212;28;20033;-81
2022/07/05 09:47:17;;;;;;;0.77;0.63;;;;;;;19.78;58.99;102234.75;5025904;28;20041;-77
2022/07/05 09:49:48;;;;;;;0.80;0.50;;;;;;;19.62;59.06;102235.69;5026357;28;20056;-78
2022/07/05 09:52:38;;;;;;;1.75;0.73;;;;;;;19.58;59.18;102234.16;5026715;28;20120;-79
2022/07/05 09:55:05;;;;;;;1.38;0.85;;;;;;;19.69;59.19;102236.19;5020319;28;20053;-80
2022/07/05 09:57:34;;;;;;;0.63;0.40;;;;;;;19.65;59.26;102235.50;5025507;28;20033;-77
2022/07/05 10:00:15;;;;;;;1.40;0.70;;;;;;;19.50;58.42;102236.47;5026935;28;20029;-77
2022/07/05 10:03:04;;;;;;;0.63;0.63;;;;;;;19.38;59.56;102232.69;5024448;28;20041;-78
2022/07/05 10:05:31;;;;;;;1.88;0.70;;;;;;;19.39;59.92;102240.66;5026272;28;20159;-77
2022/07/05 10:08:01;;;;;;;1.85;0.60;;;;;;;19.30;59.41;102234.97;5025208;28;20060;-77
2022/07/05 10:10:29;;;;;;;0.95;0.63;;;;;;;19.21;59.95;102244.44;5020326;28;21472;-84
2022/07/05 10:13:02;;;;;;;1.55;0.63;;;;;;;19.12;60.07;102253.94;5025505;28;20132;-78
2022/07/05 10:15:34;;;;;;;2.42;0.60;;;;;;;19.22;60.63;102243.50;5020165;28;20566;-81
2022/07/05 10:18:08;;;;;;;0.82;0.60;;;;;;;19.43;60.62;102245.84;5020155;28;20353;-77
2022/07/05 10:20:36;;;;;;;1.90;0.73;;;;;;;19.61;59.31;102243.84;5026746;28;20047;-77
2022/07/05 10:23:04;;;;;;;0.70;0.50;;;;;;;19.57;58.30;102245.88;5025896;28;20499;-76
2022/07/05 10:25:30;;;;;;;0.60;0.60;;;;;;;19.64;58.93;102246.34;5020266;28;20811;-77
2022/07/05 10:27:58;;;;;;;1.63;0.60;;;;;;;19.75;58.72;102240.28;5025879;28;20029;-78
2022/07/05 10:30:24;;;;;;;0.43;0.43;;;;;;;19.88;58.09;102240.41;5026666;28;20029;-78
2022/07/05 10:32:49;;;;;;;0.68;0.40;;;;;;;20.12;59.40;102232.63;5026478;28;20119;-78
2022/07/05 10:35:19;;;;;;;2.22;0.50;;;;;;;20.43;58.17;102241.38;5024237;28;20431;-77
2022/07/05 10:37:45;;;;;;;0.50;0.50;;;;;;;20.44;57.86;102240.41;5024129;28;20040;-78
2022/07/05 10:40:11;;;;;;;1.02;0.60;;;;;;;20.37;57.61;102244.47;5023018;28;20027;-77
2022/07/05 10:42:52;;;;;;;0.70;0.47;;;;;;;20.35;58.15;102232.94;5024632;28;21568;-77
2022/07/05 10:45:22;;;;;;;0.73;0.52;;;;;;;20.52;57.17;102239.06;5019454;28;20492;-76
2022/07/05 10:48:11;;;;;;;0.45;0.45;;;;;;;20.52;55.58;102244.44;5024379;28;20048;-79
2022/07/05 10:50:44;;;;;;;0.75;0.40;;;;;;;20.60;56.16;102245.63;5026609;28;20055;-79
2022/07/05 10:53:13;;;;;;;1.45;0.50;;;;;;;20.68;56.88;102250.50;5023199;28;20033;-80
2022/07/05 10:55:59;;;;;;;2.17;0.70;;;;;;;20.72;55.74;102251.19;5008057;28;20056;-78
2022/07/05 10:58:36;;;;;;;0.82;0.60;;;;;;;20.62;56.95;102250.94;5025636;28;20040;-85
2022/07/05 11:01:23;;;;;;;0.75;0.60;;;;;;;20.28;58.25;102269.28;5022697;28;20035;-79
2022/07/05 11:03:52;;;;;;;1.27;0.63;;;;;;;19.95;59.52;102258.75;5025359;28;20039;-80
2022/07/05 11:06:34;;;;;;;0.90;0.50;;;;;;;19.64;60.59;102270.50;5024525;28;20037;-78
2022/07/05 11:08:59;;;;;;;1.48;0.60;;;;;;;19.37;60.84;102282.84;5003577;28;20061;-76
2022/07/05 11:11:29;;;;;;;1.30;0.70;;;;;;;19.18;61.33;102268.81;5024896;28;20179;-83
2022/07/05 11:13:58;;;;;;;0.60;0.60;;;;;;;19.03;61.85;102287.56;5025378;28;20038;-78
2022/07/05 11:16:33;;;;;;;1.90;0.65;;;;;;;18.88;62.53;102273.16;5022881;28;20033;-77
2022/07/05 11:19:12;;;;;;;1.38;0.80;;;;;;;18.75;63.28;102286.44;5025380;28;20559;-76
2022/07/05 11:21:39;;;;;;;1.48;0.70;;;;;;;18.62;62.93;102283.56;5024948;28;20033;-78
2022/07/05 11:24:20;;;;;;;1.20;0.60;;;;;;;18.55;63.31;102282.19;5025481;28;20096;-77
2022/07/05 11:26:47;;;;;;;2.92;0.90;;;;;;;18.48;63.20;102289.75;5024194;28;20571;-77
2022/07/05 11:29:42;;;;;;;2.28;0.70;;;;;;;18.44;64.17;102294.41;5022843;28;20033;-79
2022/07/05 11:32:15;;;;;;;1.70;0.70;;;;;;;18.44;63.91;102290.84;5019065;28;20029;-79
2022/07/05 11:34:45;;;;;;;1.45;0.55;;;;;;;18.45;63.64;102289.91;5024085;28;20099;-78
2022/07/05 11:37:14;;;;;;;0.85;0.70;;;;;;;18.50;63.57;102292.31;5022237;28;20041;-77